Time;durP1;ratioP1;P1;durP2;ratioP2;P2;SDS_P1;SDS_P2;PMS_P1;PMS_P2;Temp;Humidity;BMP_temperature;BMP_pressure;BME280_temperature;BME280_humidity;BME280_pressure;Samples;Min_cycle;Max_cycle;Signal;HPM_P1;HPM_P2
2021/01/27 00:00:14;;;;;;;15.57;13.40;;;;;;;1.36;91.67;100486.38;5009484;28;20428;-74
2021/01/27 00:02:40;;;;;;;18.63;14.27;;;;;;;1.38;91.55;100483.44;5010866;28;20176;-74
2021/01/27 00:05:08;;;;;;;12.97;10.80;;;;;;;1.38;91.71;100488.81;5010625;28;20411;-74
2021/01/27 00:07:33;;;;;;;33.40;25.37;;;;;;;1.40;91.59;100479.44;5010390;28;20188;-74
2021/01/27 00:09:58;;;;;;;14.77;13.37;;;;;;;1.44;91.84;100485.13;5024842;28;20431;-74
2021/01/27 00:12:24;;;;;;;32.17;18.97;;;;;;;1.43;91.92;100481.63;5029758;28;20183;-74
2021/01/27 00:14:49;;;;;;;23.03;14.70;;;;;;;1.45;91.95;100476.81;5030377;28;20185;-74
2021/01/27 00:17:15;;;;;;;22.30;16.07;;;;;;;1.47;92.02;100482.75;5030337;28;20242;-74
2021/01/27 00:19:40;;;;;;;16.37;12.17;;;;;;;1.47;91.85;100476.56;5029343;28;20208;-74
2021/01/27 00:22:05;;;;;;;12.97;10.07;;;;;;;1.48;91.63;100484.38;5029150;28;20176;-74
2021/01/27 00:24:31;;;;;;;18.47;11.90;;;;;;;1.51;92.03;100482.25;5030288;28;20168;-74
2021/01/27 00:26:56;;;;;;;13.33;10.47;;;;;;;1.47;91.50;100481.94;5029854;28;20359;-74
2021/01/27 00:29:21;;;;;;;12.87;10.87;;;;;;;1.44;91.91;100474.34;5030217;28;20210;-74
2021/01/27 00:31:47;;;;;;;11.50;10.37;;;;;;;1.41;91.93;100472.16;5030117;28;20199;-74
2021/01/27 00:34:12;;;;;;;12.60;11.30;;;;;;;1.41;91.64;100483.75;5030112;28;20198;-74
2021/01/27 00:36:37;;;;;;;14.67;12.30;;;;;;;1.40;91.69;100476.75;5030131;28;20187;-74
2021/01/27 00:39:03;;;;;;;39.10;24.90;;;;;;;1.38;91.91;100465.41;5030192;28;20187;-74
2021/01/27 00:41:28;;;;;;;11.00;9.73;;;;;;;1.38;91.89;100472.69;5030217;28;20666;-74
2021/01/27 00:43:54;;;;;;;25.87;20.20;;;;;;;1.35;91.78;100463.22;5029977;28;20180;-73
2021/01/27 00:46:19;;;;;;;19.27;14.00;;;;;;;1.33;91.94;100462.66;5029785;28;20256;-74
2021/01/27 00:48:48;;;;;;;35.33;24.23;;;;;;;1.34;92.26;100460.78;5031603;28;20175;-74
2021/01/27 00:51:13;;;;;;;22.27;16.37;;;;;;;1.34;91.79;100460.78;5033499;28;20207;-74
2021/01/27 00:53:41;;;;;;;43.97;25.93;;;;;;;1.34;92.24;100456.22;5033486;28;20422;-73
2021/01/27 00:56:06;;;;;;;22.90;15.50;;;;;;;1.34;91.93;100455.41;5033300;28;20172;-74
2021/01/27 00:58:32;;;;;;;24.77;16.87;;;;;;;1.34;91.90;100456.22;5033331;28;20442;-74
2021/01/27 01:00:57;;;;;;;23.73;14.40;;;;;;;1.33;91.54;100448.41;5033561;28;20171;-74
2021/01/27 01:03:23;;;;;;;35.67;20.73;;;;;;;1.30;92.07;100447.03;5033278;28;20405;-74
2021/01/27 01:05:48;;;;;;;41.80;25.73;;;;;;;1.27;92.08;100449.38;5033777;28;20179;-74
2021/01/27 01:08:16;;;;;;;48.47;29.17;;;;;;;1.24;92.08;100439.94;5032926;28;20175;-74
2021/01/27 01:10:45;;;;;;;58.47;33.40;;;;;;;1.19;92.10;100438.00;4993835;28;20200;-74
2021/01/27 01:13:14;;;;;;;51.17;28.83;;;;;;;1.19;92.20;100438.00;4993117;28;20420;-74
2021/01/27 01:15:39;;;;;;;46.17;27.93;;;;;;;1.21;92.16;100432.38;4993977;28;20971;-73
2021/01/27 01:18:05;;;;;;;30.33;18.43;;;;;;;1.21;92.28;100437.75;4993357;28;20428;-74
2021/01/27 01:20:30;;;;;;;54.83;33.53;;;;;;;1.21;92.14;100434.25;4993786;28;20184;-74
2021/01/27 01:22:58;;;;;;;32.53;21.13;;;;;;;1.23;92.15;100442.88;4993891;28;20177;-74
2021/01/27 01:25:26;;;;;;;36.53;21.83;;;;;;;1.26;91.87;100443.19;4993657;28;20196;-73
2021/01/27 01:27:52;;;;;;;23.97;16.37;;;;;;;1.29;91.82;100439.19;4993312;28;20424;-74
2021/01/27 01:30:21;;;;;;;13.17;11.73;;;;;;;1.33;91.85;100445.72;4993421;28;20452;-74
2021/01/27 01:32:47;;;;;;;24.17;16.70;;;;;;;1.36;91.43;100448.69;4993443;28;20599;-74
2021/01/27 01:35:14;;;;;;;52.63;30.93;;;;;;;1.32;91.83;100441.38;4993453;28;20474;-74
2021/01/27 01:37:41;;;;;;;25.13;16.00;;;;;;;1.26;91.57;100445.06;4993121;28;20668;-74
2021/01/27 01:40:09;;;;;;;51.00;28.60;;;;;;;1.25;91.71;100438.88;4993273;28;20959;-74
2021/01/27 01:42:34;;;;;;;33.67;20.90;;;;;;;1.19;91.91;100434.50;4993304;28;20431;-74
2021/01/27 01:45:01;;;;;;;23.87;15.40;;;;;;;1.21;91.90;100439.63;4993284;28;20425;-74
2021/01/27 01:47:26;;;;;;;41.77;24.83;;;;;;;1.21;91.73;100435.06;4992829;28;20260;-74
2021/01/27 01:49:54;;;;;;;54.73;30.40;;;;;;;1.22;91.46;100425.09;4993453;28;20996;-74
2021/01/27 01:52:20;;;;;;;48.47;27.70;;;;;;;1.18;91.67;100431.00;4992961;28;20201;-74
2021/01/27 01:54:52;;;;;;;28.73;15.97;;;;;;;1.15;91.73;100426.09;4993069;28;20432;-74
2021/01/27 01:57:21;;;;;;;35.13;20.37;;;;;;;1.19;91.57;100426.44;4992655;28;20555;-73
2021/01/27 01:59:56;;;;;;;56.40;30.77;;;;;;;1.16;91.54;100427.75;4992419;28;20797;-74
2021/01/27 02:02:22;;;;;;;20.13;14.10;;;;;;;1.18;91.66;100425.63;4992947;28;20430;-74
2021/01/27 02:04:59;;;;;;;43.33;25.80;;;;;;;1.19;91.64;100413.78;4992879;28;20417;-74
2021/01/27 02:07:25;;;;;;;18.20;13.40;;;;;;;1.22;91.41;100414.34;4992549;28;20572;-74
2021/01/27 02:09:50;;;;;;;26.90;14.83;;;;;;;1.25;91.55;100409.28;5018959;28;20427;-73
2021/01/27 02:12:36;;;;;;;61.97;36.83;;;;;;;1.30;91.28;100408.50;5029661;28;20477;-74
2021/01/27 02:15:26;;;;;;;35.17;22.20;;;;;;;1.32;91.19;100411.78;5032499;28;20174;-73
2021/01/27 02:18:01;;;;;;;47.80;26.10;;;;;;;1.33;91.11;100414.22;5031734;28;20890;-74
2021/01/27 02:20:48;;;;;;;59.33;36.87;;;;;;;1.34;90.98;100410.47;5031895;28;20898;-74
2021/01/27 02:23:48;;;;;;;53.20;31.87;;;;;;;1.34;91.01;100406.97;5031936;28;20423;-74
2021/01/27 02:26:41;;;;;;;55.60;32.07;;;;;;;1.36;90.72;100404.84;5031534;28;20422;-74
2021/01/27 02:29:06;;;;;;;41.43;25.07;;;;;;;1.34;90.76;100404.28;5031804;28;20415;-74
2021/01/27 02:32:00;;;;;;;33.63;20.97;;;;;;;1.35;90.82;100411.28;5031623;28;20473;-74
2021/01/27 02:34:59;;;;;;;51.57;32.33;;;;;;;1.35;91.17;100411.28;5031835;28;20203;-73
2021/01/27 02:37:32;;;;;;;58.37;33.60;;;;;;;1.33;90.56;100406.16;5031284;28;20777;-73
2021/01/27 02:40:04;;;;;;;55.10;31.60;;;;;;;1.36;90.74;100396.75;5031359;28;20422;-74
2021/01/27 02:42:36;;;;;;;48.77;30.57;;;;;;;1.37;90.51;100391.13;5031625;28;20513;-74
2021/01/27 02:45:20;;;;;;;40.63;23.90;;;;;;;1.39;90.43;100401.63;5031544;28;20419;-74
2021/01/27 02:48:17;;;;;;;46.73;27.67;;;;;;;1.40;90.24;100395.19;5029552;28;20952;-74
2021/01/27 02:50:57;;;;;;;38.53;24.53;;;;;;;1.41;90.15;100399.50;5021201;28;21066;-74
2021/01/27 02:53:32;;;;;;;47.00;29.07;;;;;;;1.41;90.23;100394.91;5031414;28;20426;-73
2021/01/27 02:55:57;;;;;;;37.23;25.57;;;;;;;1.44;90.09;100390.91;5031094;28;20493;-74
2021/01/27 02:58:27;;;;;;;37.33;23.27;;;;;;;1.45;89.93;100387.19;5029727;28;20856;-73
2021/01/27 03:01:03;;;;;;;45.67;26.43;;;;;;;1.47;90.03;100390.44;5031313;28;20180;-74
2021/01/27 03:03:58;;;;;;;21.43;16.27;;;;;;;1.49;89.70;100391.00;5031180;28;20513;-73
2021/01/27 03:06:24;;;;;;;41.83;25.57;;;;;;;1.50;89.67;100387.22;5030875;28;20411;-73
2021/01/27 03:08:59;;;;;;;29.13;19.83;;;;;;;1.49;89.65;100382.91;5026140;28;20422;-74
2021/01/27 03:11:29;;;;;;;36.77;26.33;;;;;;;1.50;89.36;100368.38;5010515;28;20477;-73
2021/01/27 03:13:54;;;;;;;51.20;31.33;;;;;;;1.52;89.38;100368.94;5011182;28;20416;-74
2021/01/27 03:16:30;;;;;;;39.90;28.67;;;;;;;1.52;89.32;100360.84;5010919;28;20423;-73
2021/01/27 03:19:08;;;;;;;41.23;30.07;;;;;;;1.52;89.17;100355.47;5011168;28;20172;-74
2021/01/27 03:21:39;;;;;;;33.37;23.80;;;;;;;1.53;89.03;100365.19;5011212;28;20410;-74
2021/01/27 03:24:10;;;;;;;23.00;16.93;;;;;;;1.54;88.54;100358.72;5009837;28;20426;-73
2021/01/27 03:27:04;;;;;;;32.37;24.00;;;;;;;1.55;88.49;100354.16;5010935;28;20403;-74
2021/01/27 03:29:51;;;;;;;40.23;26.47;;;;;;;1.54;88.92;100357.91;5010077;28;21011;-74
2021/01/27 03:32:25;;;;;;;35.27;25.40;;;;;;;1.51;88.48;100345.78;5009781;28;20470;-73
2021/01/27 03:35:28;;;;;;;40.60;27.50;;;;;;;1.55;88.52;100338.81;5011069;28;20443;-73
2021/01/27 03:38:19;;;;;;;33.27;25.53;;;;;;;1.55;88.50;100338.81;5010680;28;20811;-74
2021/01/27 03:40:46;;;;;;;29.53;25.50;;;;;;;1.49;88.43;100327.19;5005062;28;20967;-74
2021/01/27 03:43:23;;;;;;;30.80;24.57;;;;;;;1.44;88.99;100323.63;5009663;28;20420;-73
2021/01/27 03:45:52;;;;;;;33.57;26.17;;;;;;;1.46;88.71;100326.91;5009517;28;20442;-73
2021/01/27 03:48:28;;;;;;;30.37;25.80;;;;;;;1.41;88.67;100333.00;5010549;28;21117;-75
2021/01/27 03:50:58;;;;;;;34.77;27.23;;;;;;;1.47;88.73;100336.59;5010765;28;20562;-74
2021/01/27 03:53:25;;;;;;;31.33;25.30;;;;;;;1.47;89.01;100332.03;5010470;28;20534;-74
2021/01/27 03:56:07;;;;;;;29.83;26.50;;;;;;;1.38;89.08;100325.44;5010104;28;20482;-74
2021/01/27 03:58:34;;;;;;;37.97;25.97;;;;;;;1.33;88.93;100325.41;5009359;28;20426;-73
2021/01/27 04:01:09;;;;;;;30.40;25.27;;;;;;;1.42;88.70;100323.06;5010618;28;20412;-74
2021/01/27 04:03:35;;;;;;;38.67;26.37;;;;;;;1.51;88.92;100318.03;5009443;28;20793;-74
2021/01/27 04:06:05;;;;;;;30.53;26.10;;;;;;;1.50;88.50;100317.22;5010612;28;20420;-74
2021/01/27 04:08:31;;;;;;;28.50;25.40;;;;;;;1.44;88.71;100313.66;5010627;28;20451;-74
2021/01/27 04:10:56;;;;;;;29.03;24.83;;;;;;;1.41;88.66;100311.47;5022572;28;20466;-74
2021/01/27 04:13:22;;;;;;;28.17;24.80;;;;;;;1.38;88.79;100308.50;5029886;28;20187;-74
2021/01/27 04:15:47;;;;;;;33.93;26.33;;;;;;;1.46;88.47;100308.06;5030356;28;20187;-74
2021/01/27 04:18:14;;;;;;;31.27;26.37;;;;;;;1.36;88.45;100305.25;5029894;28;20208;-74
2021/01/27 04:20:39;;;;;;;28.40;25.33;;;;;;;1.27;89.07;100299.50;5030181;28;20179;-73
2021/01/27 04:23:05;;;;;;;26.23;23.07;;;;;;;1.45;88.49;100306.44;5029161;28;20433;-74
2021/01/27 04:25:31;;;;;;;31.73;25.17;;;;;;;1.28;88.61;100303.81;5034127;28;20176;-74
2021/01/27 04:27:57;;;;;;;33.13;24.50;;;;;;;1.26;88.69;100297.06;5033858;28;20259;-74
2021/01/27 04:30:26;;;;;;;41.17;28.90;;;;;;;1.30;88.52;100293.63;5034015;28;20207;-74
2021/01/27 04:32:52;;;;;;;40.23;32.83;;;;;;;1.27;88.32;100290.63;5033897;28;20172;-74
2021/01/27 04:35:19;;;;;;;28.60;25.33;;;;;;;1.37;88.49;100283.47;5034203;28;20454;-74
2021/01/27 04:37:45;;;;;;;26.97;24.23;;;;;;;1.27;88.28;100290.63;5033839;28;20222;-73
2021/01/27 04:40:18;;;;;;;25.67;22.83;;;;;;;1.43;87.37;100287.00;5033652;28;20501;-74
2021/01/27 04:42:43;;;;;;;24.57;21.70;;;;;;;1.38;87.25;100284.28;5032448;28;20903;-73
2021/01/27 04:45:09;;;;;;;20.37;18.47;;;;;;;1.43;87.64;100284.31;5033572;28;20473;-74
2021/01/27 04:47:56;;;;;;;24.33;22.10;;;;;;;1.33;87.15;100286.94;5033374;28;20226;-73
2021/01/27 04:50:29;;;;;;;23.60;21.23;;;;;;;1.24;87.44;100280.38;5033578;28;20777;-74
2021/01/27 04:53:02;;;;;;;21.50;19.57;;;;;;;1.38;86.98;100277.00;5032585;28;20787;-74
2021/01/27 04:55:47;;;;;;;21.83;19.00;;;;;;;1.34;86.58;100275.09;5033729;28;20411;-73
2021/01/27 04:58:25;;;;;;;23.43;21.37;;;;;;;1.25;86.74;100268.53;5033177;28;20403;-73
2021/01/27 05:01:09;;;;;;;21.73;18.10;;;;;;;1.32;86.63;100279.91;5033518;28;20426;-73
2021/01/27 05:03:44;;;;;;;21.20;17.40;;;;;;;1.31;86.08;100279.09;5032091;28;20513;-73
2021/01/27 05:06:16;;;;;;;25.07;17.73;;;;;;;1.27;86.04;100283.34;5033070;28;20779;-74
2021/01/27 05:08:51;;;;;;;14.17;12.77;;;;;;;1.26;85.79;100280.91;5033435;28;20421;-73
2021/01/27 05:11:19;;;;;;;8.83;6.37;;;;;;;1.25;85.75;100276.59;5033124;28;20556;-73
2021/01/27 05:13:48;;;;;;;16.33;14.73;;;;;;;1.26;85.82;100278.22;4993759;28;20417;-73
2021/01/27 05:16:18;;;;;;;12.17;11.03;;;;;;;1.24;85.57;100280.38;4993671;28;20479;-73
2021/01/27 05:18:44;;;;;;;9.33;8.43;;;;;;;1.21;85.42;100280.88;4992714;28;20412;-73
2021/01/27 05:21:21;;;;;;;6.47;5.93;;;;;;;1.20;85.24;100277.38;4993816;28;20558;-73
2021/01/27 05:23:46;;;;;;;18.73;15.37;;;;;;;1.18;85.20;100276.81;4993735;28;20169;-73
2021/01/27 05:26:15;;;;;;;7.70;6.73;;;;;;;1.21;84.51;100283.56;4993390;28;20444;-73
2021/01/27 05:28:45;;;;;;;7.10;6.03;;;;;;;1.21;84.23;100278.19;4992349;28;20177;-74
2021/01/27 05:31:10;;;;;;;7.37;6.40;;;;;;;1.19;84.22;100273.88;4993401;28;20485;-73
2021/01/27 05:33:44;;;;;;;10.07;7.50;;;;;;;1.18;84.01;100274.13;4993548;28;20424;-73
2021/01/27 05:36:15;;;;;;;9.67;7.73;;;;;;;1.18;83.81;100274.94;4992150;28;20180;-74
2021/01/27 05:38:41;;;;;;;5.77;5.27;;;;;;;1.16;83.58;100269.00;4993503;28;20482;-73
2021/01/27 05:41:12;;;;;;;7.00;6.37;;;;;;;1.15;83.38;100272.72;4993422;28;20417;-74
2021/01/27 05:43:38;;;;;;;6.63;5.93;;;;;;;1.18;83.48;100274.94;4993460;28;20737;-73
2021/01/27 05:46:13;;;;;;;11.57;9.13;;;;;;;1.17;83.10;100270.63;4993094;28;20516;-73
2021/01/27 05:48:50;;;;;;;17.93;14.60;;;;;;;1.15;83.47;100269.22;4993299;28;20177;-73
2021/01/27 05:51:32;;;;;;;8.77;6.60;;;;;;;1.16;82.91;100270.88;4993182;28;20483;-74
2021/01/27 05:53:58;;;;;;;13.07;7.93;;;;;;;1.13;83.02;100274.88;4993557;28;21064;-74
2021/01/27 05:56:26;;;;;;;7.23;6.53;;;;;;;1.13;82.76;100266.81;5001407;28;20416;-74
2021/01/27 05:58:56;;;;;;;13.37;9.93;;;;;;;1.20;81.93;100277.38;4998015;28;20508;-74
2021/01/27 06:01:26;;;;;;;6.30;5.70;;;;;;;1.20;81.91;100274.69;4994427;28;20423;-74
2021/01/27 06:04:15;;;;;;;9.40;6.63;;;;;;;1.21;82.01;100278.19;4993411;28;20421;-74
2021/01/27 06:06:50;;;;;;;11.97;10.83;;;;;;;1.17;82.18;100272.50;4992852;28;20444;-74
2021/01/27 06:09:28;;;;;;;10.33;6.73;;;;;;;1.18;81.37;100272.25;4993119;28;20436;-73
2021/01/27 06:12:00;;;;;;;11.07;10.00;;;;;;;1.17;81.47;100269.81;4992422;28;20466;-74
2021/01/27 06:14:25;;;;;;;11.57;8.67;;;;;;;1.17;81.93;100273.31;5005047;28;20418;-73
2021/01/27 06:16:51;;;;;;;12.17;11.03;;;;;;;1.15;81.83;100272.72;5031844;28;20441;-73
2021/01/27 06:19:22;;;;;;;11.60;10.60;;;;;;;1.14;81.70;100270.28;5032153;28;20207;-74
2021/01/27 06:22:06;;;;;;;16.07;14.00;;;;;;;1.13;81.79;100272.19;5032021;28;20215;-73
2021/01/27 06:24:41;;;;;;;14.10;12.33;;;;;;;1.13;81.64;100264.09;5030728;28;20764;-74
2021/01/27 06:27:33;;;;;;;15.00;13.60;;;;;;;1.12;81.47;100258.97;5031693;28;20845;-74
2021/01/27 06:30:17;;;;;;;12.37;6.40;;;;;;;1.12;81.43;100257.09;5032083;28;20418;-74
2021/01/27 06:33:07;;;;;;;6.67;5.97;;;;;;;1.09;81.45;100254.13;5030409;28;20477;-74
2021/01/27 06:35:57;;;;;;;10.10;6.27;;;;;;;1.04;81.77;100249.50;5032111;28;20415;-73
2021/01/27 06:38:42;;;;;;;14.90;13.57;;;;;;;1.02;82.19;100246.25;5030195;28;20841;-74
2021/01/27 06:41:29;;;;;;;10.83;8.07;;;;;;;1.00;81.92;100242.97;5010336;28;20430;-74
2021/01/27 06:44:43;;;;;;;13.40;12.23;;;;;;;0.98;82.27;100242.44;5031673;28;20469;-73
2021/01/27 06:47:19;;;;;;;11.40;9.57;;;;;;;0.94;82.00;100249.38;5018726;28;20422;-73
2021/01/27 06:50:23;;;;;;;4.30;3.17;;;;;;;0.92;82.00;100242.63;5031559;28;20414;-73
2021/01/27 06:53:17;;;;;;;7.63;6.90;;;;;;;0.90;81.63;100242.91;5031405;28;21048;-73
2021/01/27 06:56:01;;;;;;;11.20;10.20;;;;;;;0.89;81.64;100234.03;5031236;28;20964;-73
2021/01/27 06:58:41;;;;;;;8.47;7.57;;;;;;;0.91;80.72;100236.44;5029728;28;20419;-74
2021/01/27 07:02:01;;;;;;;7.03;6.17;;;;;;;0.92;80.86;100240.75;5031283;28;20446;-75
2021/01/27 07:05:00;;;;;;;6.07;4.27;;;;;;;0.91;80.32;100231.06;5008621;28;20563;-74
2021/01/27 07:07:38;;;;;;;10.63;9.67;;;;;;;0.91;80.96;100223.00;5030876;28;20423;-74
2021/01/27 07:10:18;;;;;;;7.33;6.57;;;;;;;0.93;80.28;100222.75;5031010;28;20514;-74
2021/01/27 07:12:50;;;;;;;15.07;5.27;;;;;;;0.93;80.29;100223.56;5030678;28;20422;-74
2021/01/27 07:15:21;;;;;;;6.10;5.47;;;;;;;0.93;79.61;100226.25;5031251;28;20458;-74
2021/01/27 07:17:55;;;;;;;4.73;4.27;;;;;;;0.97;79.44;100219.28;5030563;28;20828;-74
2021/01/27 07:20:30;;;;;;;10.00;9.17;;;;;;;0.97;79.75;100224.66;5022257;28;20430;-74
2021/01/27 07:23:16;;;;;;;10.50;8.80;;;;;;;0.99;79.25;100225.22;4999938;28;20485;-74
2021/01/27 07:25:58;;;;;;;5.73;4.27;;;;;;;1.01;78.30;100223.09;5011096;28;20411;-75
2021/01/27 07:29:02;;;;;;;8.70;7.33;;;;;;;1.05;78.12;100224.22;5025893;28;20509;-74
2021/01/27 07:31:56;;;;;;;3.47;3.17;;;;;;;1.07;78.47;100215.91;5030697;28;20454;-75
2021/01/27 07:34:44;;;;;;;3.17;2.87;;;;;;;1.05;77.85;100213.47;5030701;28;20812;-74
2021/01/27 07:37:17;;;;;;;10.10;8.77;;;;;;;1.06;77.78;100209.72;5030502;28;20419;-74
2021/01/27 07:40:07;;;;;;;8.07;7.33;;;;;;;1.06;77.86;100204.34;5030382;28;20407;-74
2021/01/27 07:43:07;;;;;;;9.17;8.00;;;;;;;1.03;78.09;100204.84;5030812;28;20460;-74
2021/01/27 07:45:36;;;;;;;10.27;9.13;;;;;;;1.03;78.33;100218.28;4982122;28;20439;-73
2021/01/27 07:48:13;;;;;;;3.23;2.93;;;;;;;1.03;78.19;100199.47;4990751;28;20423;-74
2021/01/27 07:50:39;;;;;;;9.03;8.13;;;;;;;1.01;78.31;100193.50;4991233;28;20454;-74
2021/01/27 07:53:21;;;;;;;10.50;9.57;;;;;;;1.01;78.45;100196.19;4991053;28;20424;-74
2021/01/27 07:56:30;;;;;;;11.07;9.83;;;;;;;0.98;78.84;100198.59;4991285;28;20510;-75
2021/01/27 07:59:11;;;;;;;5.17;4.67;;;;;;;0.92;80.09;100189.66;4995101;28;20451;-74
2021/01/27 08:01:39;;;;;;;11.23;10.23;;;;;;;0.87;80.84;100174.31;4997646;28;20430;-74
2021/01/27 08:04:08;;;;;;;6.73;6.13;;;;;;;0.89;80.78;100174.84;4997580;28;20503;-74
2021/01/27 08:06:46;;;;;;;14.93;13.57;;;;;;;0.81;81.63;100172.59;4997208;28;20447;-75
2021/01/27 08:09:21;;;;;;;3.20;2.93;;;;;;;0.84;81.78;100165.91;4997597;28;20762;-74
2021/01/27 08:11:47;;;;;;;14.07;12.50;;;;;;;0.83;81.76;100164.28;4997109;28;20472;-74
2021/01/27 08:14:14;;;;;;;15.77;14.37;;;;;;;0.82;81.83;100163.47;4997512;28;21121;-74
2021/01/27 08:16:41;;;;;;;15.60;14.30;;;;;;;0.79;82.55;100155.13;4997218;28;20268;-74
2021/01/27 08:19:12;;;;;;;16.93;15.43;;;;;;;0.75;83.16;100146.75;4997446;28;20452;-74
2021/01/27 08:21:47;;;;;;;16.10;14.50;;;;;;;0.76;82.63;100143.00;4997422;28;20424;-75
2021/01/27 08:24:34;;;;;;;15.40;13.37;;;;;;;0.80;82.39;100145.97;4997363;28;20426;-74
2021/01/27 08:27:09;;;;;;;15.70;14.43;;;;;;;0.81;82.67;100136.84;4997029;28;20420;-75
2021/01/27 08:29:34;;;;;;;14.57;12.23;;;;;;;0.87;82.38;100130.47;4997325;28;20987;-76
2021/01/27 08:32:21;;;;;;;18.30;16.67;;;;;;;0.96;82.33;100130.78;4999122;28;20562;-82
2021/01/27 08:34:46;;;;;;;16.00;14.60;;;;;;;0.93;82.11;100121.38;4997334;28;20600;-72
2021/01/27 08:37:19;;;;;;;10.07;9.27;;;;;;;1.05;81.41;100118.50;4997065;28;20538;-72
2021/01/27 08:39:45;;;;;;;13.07;12.07;;;;;;;0.97;81.23;100129.72;4997529;28;20181;-72
2021/01/27 08:42:25;;;;;;;9.87;8.03;;;;;;;0.99;80.70;100122.22;4997559;28;20435;-72
2021/01/27 08:44:51;;;;;;;13.33;11.93;;;;;;;0.96;81.37;100128.09;4997370;28;20625;-72
2021/01/27 08:47:16;;;;;;;12.57;11.47;;;;;;;0.99;81.36;100124.91;4996992;28;20423;-78
2021/01/27 08:49:49;;;;;;;9.20;8.30;;;;;;;1.00;81.05;100127.31;4997234;28;20213;-72
2021/01/27 08:52:14;;;;;;;10.13;9.33;;;;;;;0.99;81.05;100130.28;4997045;28;20213;-72
2021/01/27 08:54:40;;;;;;;12.10;11.10;;;;;;;0.97;81.41;100129.72;4997243;28;20435;-72
2021/01/27 08:57:36;;;;;;;12.03;10.83;;;;;;;1.03;80.11;100137.59;4996970;28;20185;-72
2021/01/27 09:00:11;;;;;;;10.83;9.73;;;;;;;1.00;80.84;100131.91;4997085;28;20185;-72
2021/01/27 09:02:42;;;;;;;11.03;10.03;;;;;;;0.98;80.71;100129.47;4997042;28;20426;-72
2021/01/27 09:05:28;;;;;;;11.27;10.27;;;;;;;1.03;80.33;100142.16;4997236;28;20535;-72
2021/01/27 09:07:56;;;;;;;11.27;10.30;;;;;;;0.99;80.30;100136.47;4996692;28;20457;-72
2021/01/27 09:10:28;;;;;;;12.77;11.57;;;;;;;1.06;80.25;100141.66;4995057;28;20456;-72
2021/01/27 09:12:53;;;;;;;7.07;6.47;;;;;;;1.03;79.26;100142.16;4993276;28;20543;-72
2021/01/27 09:15:36;;;;;;;9.83;9.03;;;;;;;1.03;79.93;100142.16;4993359;28;20516;-72
2021/01/27 09:18:03;;;;;;;10.90;9.90;;;;;;;1.03;79.86;100147.56;4993037;28;20173;-72
2021/01/27 09:20:31;;;;;;;11.50;10.60;;;;;;;1.05;79.52;100150.78;4993695;28;20425;-72
2021/01/27 09:23:05;;;;;;;9.37;8.67;;;;;;;1.14;79.50;100149.22;4993626;28;20435;-72
2021/01/27 09:25:32;;;;;;;8.13;7.33;;;;;;;1.10;79.10;100146.25;4993306;28;20427;-72
2021/01/27 09:28:09;;;;;;;5.70;5.20;;;;;;;1.06;79.17;100137.09;4992808;28;20424;-72
2021/01/27 09:30:35;;;;;;;10.63;4.77;;;;;;;0.96;79.02;100138.88;4993343;28;20984;-72
2021/01/27 09:33:14;;;;;;;12.20;9.60;;;;;;;0.91;80.10;100142.31;4993310;28;20420;-72
2021/01/27 09:35:41;;;;;;;6.50;6.00;;;;;;;0.94;80.08;100133.75;4993335;28;20459;-72
2021/01/27 09:38:14;;;;;;;11.80;10.70;;;;;;;0.94;79.83;100139.13;4992880;28;20570;-72
2021/01/27 09:40:42;;;;;;;8.87;6.90;;;;;;;0.98;80.31;100132.16;4993084;28;20464;-72
2021/01/27 09:43:12;;;;;;;11.07;9.20;;;;;;;0.98;80.17;100134.84;4992010;28;20539;-72
2021/01/27 09:45:40;;;;;;;10.23;9.33;;;;;;;0.99;80.19;100131.09;4993118;28;20408;-72
2021/01/27 09:48:07;;;;;;;10.63;9.73;;;;;;;1.00;80.16;100129.22;4992960;28;20472;-72
2021/01/27 09:50:38;;;;;;;10.10;9.10;;;;;;;1.05;80.64;100134.66;4992888;28;20504;-71
2021/01/27 09:53:05;;;;;;;13.30;12.30;;;;;;;1.08;80.31;100136.81;4991940;28;20630;-72
2021/01/27 09:55:31;;;;;;;10.57;9.63;;;;;;;1.09;79.54;100138.44;4992953;28;20503;-72
2021/01/27 09:58:01;;;;;;;7.37;6.67;;;;;;;1.15;79.76;100132.03;4992338;28;20412;-72
2021/01/27 10:00:32;;;;;;;5.00;4.10;;;;;;;1.14;79.80;100130.41;4992850;28;20276;-72
2021/01/27 10:03:41;;;;;;;7.57;4.47;;;;;;;1.08;78.84;100118.81;4992864;28;20471;-72
2021/01/27 10:06:47;;;;;;;8.07;7.37;;;;;;;1.11;80.03;100109.41;4981594;28;20491;-72
2021/01/27 10:09:15;;;;;;;6.10;5.23;;;;;;;1.15;79.71;100113.19;4992595;28;20838;-72
2021/01/27 10:11:41;;;;;;;7.60;5.87;;;;;;;1.21;79.12;100114.06;4994298;28;21237;-72
2021/01/27 10:14:13;;;;;;;10.40;9.40;;;;;;;1.21;79.25;100114.88;5011808;28;20444;-72
2021/01/27 10:16:55;;;;;;;6.60;6.10;;;;;;;1.27;79.43;100118.41;5013056;28;20431;-72
2021/01/27 10:19:30;;;;;;;8.00;7.30;;;;;;;1.42;79.16;100116.63;5016388;28;20419;-72
2021/01/27 10:21:58;;;;;;;8.07;7.37;;;;;;;1.54;78.21;100104.84;5031236;28;20430;-72
2021/01/27 10:24:49;;;;;;;7.27;6.67;;;;;;;1.67;78.10;100113.28;5032199;28;20423;-72
2021/01/27 10:27:31;;;;;;;2.80;2.07;;;;;;;1.73;77.07;100103.34;5031478;28;20411;-72
2021/01/27 10:29:57;;;;;;;4.60;4.20;;;;;;;1.84;77.07;100098.81;5031852;28;20410;-72
2021/01/27 10:32:31;;;;;;;2.93;2.73;;;;;;;1.73;76.87;100096.06;5020678;28;20546;-72
2021/01/27 10:34:57;;;;;;;7.00;4.87;;;;;;;1.73;77.12;100097.97;5012149;28;20433;-72
2021/01/27 10:37:37;;;;;;;3.63;3.33;;;;;;;1.76;76.66;100086.69;5011652;28;20954;-72
2021/01/27 10:40:21;;;;;;;3.57;2.83;;;;;;;1.74;76.59;100099.59;5012006;28;20640;-72
2021/01/27 10:42:57;;;;;;;4.13;3.73;;;;;;;1.69;77.25;100100.38;5011834;28;20431;-72
2021/01/27 10:45:39;;;;;;;4.60;3.47;;;;;;;1.63;77.40;100097.94;5011869;28;20481;-72
2021/01/27 10:48:11;;;;;;;9.80;4.13;;;;;;;1.57;77.04;100102.44;5011366;28;20416;-72
2021/01/27 10:50:50;;;;;;;3.07;2.83;;;;;;;1.59;77.43;100102.19;5011698;28;20512;-72
2021/01/27 10:53:18;;;;;;;7.13;6.60;;;;;;;1.57;77.17;100094.38;5011679;28;20802;-72
2021/01/27 10:55:56;;;;;;;13.60;3.23;;;;;;;1.61;77.80;100089.31;5011850;28;20439;-72
2021/01/27 10:58:25;;;;;;;5.60;5.10;;;;;;;1.57;78.24;100088.19;5009394;28;20945;-72
2021/01/27 11:00:51;;;;;;;5.23;4.83;;;;;;;1.46;78.74;100085.44;5010763;28;20431;-73
2021/01/27 11:03:17;;;;;;;5.33;3.20;;;;;;;1.48;78.84;100091.38;5015015;28;20428;-73
2021/01/27 11:05:43;;;;;;;9.17;4.83;;;;;;;1.49;79.64;100073.34;5011208;28;20659;-72
2021/01/27 11:08:13;;;;;;;2.67;2.47;;;;;;;1.52;79.91;100080.09;5011819;28;20446;-71
2021/01/27 11:10:39;;;;;;;7.10;6.53;;;;;;;1.57;80.05;100064.75;5031067;28;20199;-72
2021/01/27 11:13:04;;;;;;;4.43;4.13;;;;;;;1.64;79.59;100067.25;5030055;28;20419;-72
2021/01/27 11:15:29;;;;;;;5.90;5.37;;;;;;;1.52;79.07;100064.75;5031072;28;20188;-72
2021/01/27 11:17:55;;;;;;;3.40;2.90;;;;;;;1.58;79.48;100057.50;5030341;28;20182;-71
2021/01/27 11:20:24;;;;;;;3.00;2.80;;;;;;;1.58;80.05;100058.31;5029364;28;20172;-71
2021/01/27 11:22:51;;;;;;;3.60;3.27;;;;;;;1.55;80.37;100058.84;5031158;28;20182;-71
2021/01/27 11:25:25;;;;;;;3.93;3.53;;;;;;;1.43;80.55;100058.22;5030731;28;20438;-71
2021/01/27 11:27:52;;;;;;;5.37;4.87;;;;;;;1.39;81.90;100055.25;5030380;28;20399;-71
2021/01/27 11:30:20;;;;;;;3.70;3.40;;;;;;;1.35;82.20;100054.16;5030734;28;20418;-71
2021/01/27 11:32:46;;;;;;;4.07;3.60;;;;;;;1.25;82.72;100048.69;5030124;28;20424;-71
2021/01/27 11:35:13;;;;;;;3.47;3.27;;;;;;;1.31;83.90;100052.25;5030977;28;20510;-72
2021/01/27 11:37:38;;;;;;;6.40;5.80;;;;;;;1.28;83.91;100039.28;5030165;28;20617;-72
2021/01/27 11:40:05;;;;;;;13.87;3.93;;;;;;;1.19;84.48;100045.19;5030741;28;20429;-72
2021/01/27 11:42:30;;;;;;;3.47;3.17;;;;;;;1.18;84.98;100038.19;5030733;28;20176;-71
2021/01/27 11:44:56;;;;;;;5.80;5.30;;;;;;;1.09;85.73;100042.41;5029617;28;20425;-72
2021/01/27 11:47:21;;;;;;;7.10;6.60;;;;;;;1.10;86.12;100049.41;5030356;28;20179;-72
2021/01/27 11:49:47;;;;;;;4.33;3.97;;;;;;;1.06;87.02;100050.19;5030596;28;20180;-72
2021/01/27 11:52:13;;;;;;;5.33;4.17;;;;;;;1.01;87.70;100048.25;5030473;28;20214;-72